Time;durP1;ratioP1;P1;durP2;ratioP2;P2;SDS_P1;SDS_P2;PMS_P1;PMS_P2;Temp;Humidity;BMP_temperature;BMP_pressure;BME280_temperature;BME280_humidity;BME280_pressure;Samples;Min_cycle;Max_cycle;Signal;HPM_P1;HPM_P2
2021/12/23 00:02:22;;;;;;;5.90;5.30;;;7.70;76.90;;;;;;5167527;27;20035;-54
2021/12/23 00:04:48;;;;;;;6.00;5.13;;;7.70;76.90;;;;;;5153901;27;20422;-56
2021/12/23 00:07:14;;;;;;;7.25;5.60;;;7.70;76.90;;;;;;5154290;27;20058;-56
2021/12/23 00:12:17;;;;;;;6.32;5.03;;;7.70;76.90;;;;;;5155442;27;20042;-55
2021/12/23 00:14:45;;;;;;;7.57;5.78;;;7.60;76.90;;;;;;5154166;27;20043;-54
2021/12/23 00:23:24;;;;;;;;;;;7.60;76.90;;;;;;5069981;28;20123;-55
2021/12/23 00:25:30;;;;;;;6.95;5.45;;;7.60;76.90;;;;;;5089227;28;20048;-56
2021/12/23 00:27:56;;;;;;;6.53;5.53;;;7.60;76.90;;;;;;5090252;28;20076;-55
2021/12/23 00:30:21;;;;;;;5.70;5.10;;;7.60;76.90;;;;;;5090181;28;21050;-55
2021/12/23 00:32:47;;;;;;;5.93;5.30;;;7.60;76.90;;;;;;5090206;28;20044;-55
2021/12/23 00:35:13;;;;;;;5.70;5.13;;;7.70;77.00;;;;;;5089182;28;20135;-55
2021/12/23 00:37:43;;;;;;;5.97;5.15;;;7.60;76.90;;;;;;5089614;28;20059;-55
2021/12/23 00:40:11;;;;;;;6.00;4.95;;;7.60;76.90;;;;;;5090008;28;20048;-55
2021/12/23 00:42:37;;;;;;;6.57;5.18;;;7.60;76.90;;;;;;5090122;28;20101;-55
2021/12/23 00:45:04;;;;;;;7.60;5.07;;;7.60;76.90;;;;;;5089587;28;20465;-55
2021/12/23 00:47:30;;;;;;;5.57;4.88;;;7.60;76.90;;;;;;5090019;28;20484;-56
2021/12/23 00:49:57;;;;;;;6.10;5.50;;;7.60;76.90;;;;;;5073146;28;20048;-55
2021/12/23 00:52:33;;;;;;;5.88;5.03;;;7.60;76.90;;;;;;5089501;28;20044;-55
2021/12/23 00:54:58;;;;;;;6.13;5.47;;;7.60;76.90;;;;;;5089378;28;20089;-54
2021/12/23 00:57:29;;;;;;;5.80;5.05;;;7.60;76.90;;;;;;5144986;27;20447;-55
2021/12/23 00:59:57;;;;;;;6.45;4.95;;;7.60;76.90;;;;;;5174815;27;20121;-55
2021/12/23 01:02:27;;;;;;;6.00;5.40;;;7.60;76.90;;;;;;5174818;27;20049;-56
2021/12/23 01:04:53;;;;;;;6.00;5.35;;;7.60;76.90;;;;;;5174732;27;20047;-56
2021/12/23 01:07:19;;;;;;;6.20;5.05;;;7.60;76.90;;;;;;5172181;27;20049;-55
2021/12/23 01:09:45;;;;;;;7.00;5.60;;;7.70;77.00;;;;;;5174530;27;20050;-55
2021/12/23 01:12:13;;;;;;;6.43;5.43;;;7.60;76.90;;;;;;5174785;27;20105;-55
2021/12/23 01:14:43;;;;;;;5.90;5.28;;;7.60;76.90;;;;;;5155701;27;20541;-56
2021/12/23 01:19:41;;;;;;;5.75;5.13;;;7.60;76.90;;;;;;5174669;27;20046;-55
2021/12/23 01:22:08;;;;;;;6.05;5.25;;;7.60;76.90;;;;;;5174691;27;20086;-55
2021/12/23 01:24:34;;;;;;;6.25;5.43;;;7.60;76.90;;;;;;5155402;27;20034;-56
2021/12/23 01:27:01;;;;;;;7.57;5.55;;;7.60;76.80;;;;;;5173173;27;20129;-55
2021/12/23 01:29:27;;;;;;;5.72;5.13;;;7.60;76.90;;;;;;5174819;27;20085;-55
2021/12/23 01:31:53;;;;;;;7.28;5.35;;;7.60;76.90;;;;;;5174579;27;20038;-55
2021/12/23 01:34:18;;;;;;;6.93;5.38;;;7.60;76.90;;;;;;5174495;27;20047;-55
2021/12/23 01:36:44;;;;;;;6.88;5.63;;;7.60;76.80;;;;;;5174406;27;20162;-56
2021/12/23 01:39:10;;;;;;;6.60;5.10;;;7.60;76.80;;;;;;5153052;27;20073;-55
2021/12/23 01:41:36;;;;;;;6.30;5.28;;;7.60;76.80;;;;;;5174216;27;20046;-55
2021/12/23 01:44:04;;;;;;;6.53;5.25;;;7.60;76.80;;;;;;5174297;27;20091;-55
2021/12/23 01:46:30;;;;;;;6.82;5.70;;;7.60;76.80;;;;;;5174341;27;20039;-56
2021/12/23 01:48:55;;;;;;;6.18;5.28;;;7.60;76.80;;;;;;5172418;27;20043;-55
2021/12/23 01:51:21;;;;;;;5.50;5.00;;;7.60;76.80;;;;;;5177942;27;20046;-55
2021/12/23 01:53:48;;;;;;;6.45;5.57;;;7.60;76.80;;;;;;5178057;27;20396;-55
2021/12/23 01:56:14;;;;;;;6.20;5.20;;;7.60;76.80;;;;;;5177247;27;20042;-55
2021/12/23 01:58:41;;;;;;;6.35;5.50;;;7.60;76.80;;;;;;5177759;27;20034;-53
2021/12/23 02:01:07;;;;;;;6.20;5.18;;;7.60;76.70;;;;;;5138422;27;20043;-55
2021/12/23 02:03:34;;;;;;;6.82;5.53;;;7.60;76.70;;;;;;5156845;27;20086;-56
2021/12/23 02:06:00;;;;;;;6.43;5.40;;;7.60;76.70;;;;;;5138004;27;20046;-55
2021/12/23 02:08:25;;;;;;;6.35;5.40;;;7.60;76.70;;;;;;5156546;27;20049;-56
2021/12/23 02:10:54;;;;;;;6.65;5.93;;;7.60;76.80;;;;;;5157428;27;20490;-56
2021/12/23 02:13:20;;;;;;;6.25;5.32;;;7.60;76.80;;;;;;5138942;27;20042;-55
2021/12/23 02:15:46;;;;;;;7.15;5.55;;;7.60;76.80;;;;;;5156815;27;20345;-56
2021/12/23 02:18:12;;;;;;;6.53;5.47;;;7.60;76.80;;;;;;5156379;27;20047;-55
2021/12/23 02:20:38;;;;;;;5.85;5.22;;;7.60;76.80;;;;;;5157736;27;20035;-56
2021/12/23 02:23:06;;;;;;;6.15;5.35;;;7.60;76.80;;;;;;5156651;27;20062;-50
2021/12/23 02:25:32;;;;;;;5.93;5.00;;;7.60;76.90;;;;;;5156364;27;20474;-55
2021/12/23 02:28:03;;;;;;;6.32;5.43;;;7.60;76.80;;;;;;5155747;27;20087;-56
2021/12/23 02:30:29;;;;;;;5.53;5.03;;;7.60;76.90;;;;;;5156556;27;20035;-56
2021/12/23 02:32:56;;;;;;;6.70;5.85;;;7.60;76.90;;;;;;5157388;27;20103;-55
2021/12/23 02:35:23;;;;;;;6.78;5.43;;;7.60;76.90;;;;;;5156312;27;20039;-54
2021/12/23 02:37:49;;;;;;;6.78;5.88;;;7.60;76.90;;;;;;5156202;27;20394;-55
2021/12/23 02:40:32;;;;;;;6.45;5.32;;;7.60;76.90;;;;;;5156143;27;20038;-56
2021/12/23 02:43:10;;;;;;;5.93;5.20;;;7.60;76.80;;;;;;5120621;27;20046;-56
2021/12/23 02:45:37;;;;;;;6.70;5.80;;;7.60;76.90;;;;;;5156032;27;20355;-56
2021/12/23 02:48:03;;;;;;;7.45;5.53;;;7.60;76.90;;;;;;5155831;27;20037;-55
2021/12/23 02:50:29;;;;;;;6.22;5.55;;;7.60;77.60;;;;;;5156055;27;20038;-55
2021/12/23 02:52:58;;;;;;;6.03;5.25;;;7.60;76.90;;;;;;5138334;27;20395;-56
2021/12/23 02:55:24;;;;;;;5.97;5.07;;;7.60;76.90;;;;;;5155684;27;20132;-55
2021/12/23 02:57:50;;;;;;;6.20;5.28;;;7.60;76.90;;;;;;5156010;27;20042;-55
2021/12/23 03:00:16;;;;;;;6.85;5.47;;;7.60;76.90;;;;;;5154414;27;20413;-55
2021/12/23 03:02:42;;;;;;;5.85;5.13;;;7.60;76.90;;;;;;5156604;27;20087;-54
2021/12/23 03:05:09;;;;;;;6.72;4.97;;;7.60;76.90;;;;;;5137474;27;20038;-55
2021/12/23 03:07:35;;;;;;;5.30;4.55;;;7.60;76.90;;;;;;5136877;27;20055;-55
2021/12/23 03:10:02;;;;;;;6.93;5.15;;;7.60;77.00;;;;;;5155685;27;20038;-56
2021/12/23 03:12:28;;;;;;;6.50;5.72;;;7.60;77.00;;;;;;5155655;27;20138;-55
2021/12/23 03:14:53;;;;;;;5.78;5.10;;;7.60;77.00;;;;;;5156227;27;20117;-56
2021/12/23 03:17:19;;;;;;;6.00;5.05;;;7.60;76.90;;;;;;5155408;27;20390;-54
2021/12/23 03:19:45;;;;;;;6.88;6.00;;;7.60;77.00;;;;;;5155411;27;20420;-55
2021/12/23 03:22:10;;;;;;;5.70;4.93;;;7.60;77.60;;;;;;5155595;27;20074;-55
2021/12/23 03:24:36;;;;;;;6.43;5.38;;;7.60;76.90;;;;;;5156477;27;20121;-55
2021/12/23 03:27:02;;;;;;;7.07;5.75;;;7.60;77.00;;;;;;5155160;27;20035;-55
2021/12/23 03:29:28;;;;;;;5.50;4.97;;;7.60;76.90;;;;;;5155667;27;20039;-55
2021/12/23 03:31:53;;;;;;;5.60;5.00;;;7.60;76.90;;;;;;5155003;27;20097;-55
2021/12/23 03:34:19;;;;;;;6.32;5.25;;;7.60;77.00;;;;;;5155299;27;20398;-54
2021/12/23 03:36:45;;;;;;;6.95;5.25;;;7.60;76.90;;;;;;5137221;27;20556;-55
2021/12/23 03:39:11;;;;;;;6.78;5.05;;;7.60;76.90;;;;;;5155047;27;20065;-55
2021/12/23 03:41:37;;;;;;;6.50;4.78;;;7.60;77.00;;;;;;5154933;27;20119;-55
2021/12/23 03:44:03;;;;;;;6.80;5.63;;;7.60;77.00;;;;;;5154707;27;20053;-55
2021/12/23 03:46:28;;;;;;;6.72;5.15;;;7.60;76.90;;;;;;5155739;27;20043;-55
2021/12/23 03:48:54;;;;;;;6.95;5.47;;;7.60;76.90;;;;;;5154710;27;20046;-55
2021/12/23 03:51:20;;;;;;;6.22;5.30;;;7.50;76.90;;;;;;5154717;27;20133;-55
2021/12/23 03:53:45;;;;;;;5.72;5.00;;;7.60;77.00;;;;;;5154827;27;20091;-55
2021/12/23 03:56:11;;;;;;;6.03;5.32;;;7.60;77.00;;;;;;5155566;27;20085;-55
2021/12/23 03:58:37;;;;;;;5.78;5.18;;;7.60;77.00;;;;;;5135845;27;20046;-55
2021/12/23 04:01:04;;;;;;;6.18;5.03;;;7.50;76.90;;;;;;5154447;27;20030;-56
2021/12/23 04:03:29;;;;;;;6.10;5.18;;;7.60;77.00;;;;;;5154294;27;20046;-56
2021/12/23 04:05:55;;;;;;;6.30;5.47;;;7.60;77.00;;;;;;5154666;27;20083;-56
2021/12/23 04:08:21;;;;;;;6.18;4.80;;;7.60;77.00;;;;;;5155032;27;20119;-55
2021/12/23 04:10:46;;;;;;;6.43;5.00;;;7.60;77.00;;;;;;5154384;27;20051;-56
2021/12/23 04:13:12;;;;;;;6.68;5.60;;;7.50;76.90;;;;;;5153801;27;20050;-55
2021/12/23 04:15:38;;;;;;;6.97;5.22;;;7.60;77.00;;;;;;5154223;27;20115;-56
2021/12/23 04:18:04;;;;;;;5.35;4.85;;;7.60;77.00;;;;;;5155501;27;20039;-55
2021/12/23 04:20:34;;;;;;;6.95;5.60;;;7.60;77.00;;;;;;5153979;27;20047;-56
2021/12/23 04:23:00;;;;;;;5.85;5.22;;;7.60;77.70;;;;;;5154256;27;20118;-56
2021/12/23 04:25:28;;;;;;;6.05;5.45;;;7.60;77.00;;;;;;5154214;27;20042;-55
2021/12/23 04:28:01;;;;;;;6.43;5.65;;;7.60;77.00;;;;;;5135633;27;20091;-53
2021/12/23 04:30:26;;;;;;;6.45;5.20;;;7.60;77.00;;;;;;5154018;27;20039;-55
2021/12/23 04:32:53;;;;;;;6.50;5.43;;;7.50;76.90;;;;;;5153994;27;20189;-55
2021/12/23 04:35:18;;;;;;;6.28;5.20;;;7.50;77.00;;;;;;5153726;27;20031;-55
2021/12/23 04:37:44;;;;;;;6.85;5.55;;;7.60;77.00;;;;;;5134919;27;20482;-56
2021/12/23 04:40:11;;;;;;;5.40;4.78;;;7.60;77.00;;;;;;5155191;27;20039;-56
2021/12/23 04:42:37;;;;;;;5.80;5.00;;;7.60;77.00;;;;;;5154034;27;20038;-56
2021/12/23 04:45:05;;;;;;;5.43;4.82;;;7.50;76.90;;;;;;5153982;27;20418;-56
2021/12/23 04:47:31;;;;;;;5.43;4.80;;;7.50;76.90;;;;;;5153646;27;20042;-55
2021/12/23 04:49:56;;;;;;;6.07;5.00;;;7.60;77.00;;;;;;5156902;27;20035;-53
2021/12/23 04:52:22;;;;;;;6.88;5.32;;;7.50;77.00;;;;;;5173841;27;20558;-56
2021/12/23 04:54:48;;;;;;;5.72;5.20;;;7.50;76.90;;;;;;5155680;27;20050;-55
2021/12/23 04:57:13;;;;;;;6.03;5.15;;;7.60;77.10;;;;;;5174715;27;20129;-55
2021/12/23 04:59:39;;;;;;;7.13;5.72;;;7.60;77.00;;;;;;5174662;27;20103;-56
2021/12/23 05:02:05;;;;;;;6.43;5.13;;;7.50;77.00;;;;;;5172431;27;20081;-55
2021/12/23 05:04:30;;;;;;;5.30;4.78;;;7.60;77.00;;;;;;5174495;27;20424;-50
2021/12/23 05:06:56;;;;;;;6.07;5.10;;;7.60;77.00;;;;;;5174012;27;20109;-55
2021/12/23 05:09:22;;;;;;;6.82;5.57;;;7.50;77.00;;;;;;5174416;27;20042;-55
2021/12/23 05:11:47;;;;;;;6.55;5.75;;;7.60;77.00;;;;;;5172661;27;20030;-56
2021/12/23 05:14:13;;;;;;;6.25;5.10;;;7.60;77.00;;;;;;5174723;27;20042;-55
2021/12/23 05:16:39;;;;;;;5.68;5.05;;;7.60;77.00;;;;;;5174562;27;20046;-55
2021/12/23 05:19:04;;;;;;;5.63;5.10;;;7.50;77.00;;;;;;5174318;27;20046;-55
2021/12/23 05:21:31;;;;;;;6.30;5.35;;;7.50;77.00;;;;;;5172516;27;20155;-55
2021/12/23 05:23:56;;;;;;;5.45;4.85;;;7.60;77.70;;;;;;5175622;27;20105;-56
2021/12/23 05:26:22;;;;;;;6.70;5.82;;;7.60;77.00;;;;;;5178777;27;20045;-56
2021/12/23 05:28:48;;;;;;;7.60;5.53;;;7.50;76.90;;;;;;5178868;27;20122;-56
2021/12/23 05:31:14;;;;;;;5.72;5.13;;;7.60;77.00;;;;;;5179071;27;20113;-56
2021/12/23 05:33:39;;;;;;;5.65;5.15;;;7.50;76.90;;;;;;5176806;27;20083;-55
2021/12/23 05:36:05;;;;;;;6.35;5.38;;;7.60;77.00;;;;;;5178267;27;20327;-55
2021/12/23 05:38:31;;;;;;;5.47;4.90;;;7.50;76.90;;;;;;5178208;27;20046;-56
2021/12/23 05:40:57;;;;;;;5.80;5.00;;;7.50;76.90;;;;;;5178096;27;20053;-55
2021/12/23 05:43:22;;;;;;;5.95;5.35;;;7.60;77.00;;;;;;5176631;27;20125;-55
2021/12/23 05:45:48;;;;;;;7.05;5.50;;;7.50;77.00;;;;;;5178266;27;20037;-55
2021/12/23 05:48:14;;;;;;;5.57;5.05;;;7.50;77.00;;;;;;5177944;27;20485;-54
2021/12/23 05:50:40;;;;;;;6.13;5.30;;;7.60;77.00;;;;;;5178053;27;20077;-54
2021/12/23 05:53:06;;;;;;;6.38;5.45;;;7.60;77.00;;;;;;5158975;27;20048;-52
2021/12/23 05:55:32;;;;;;;5.97;5.22;;;7.50;76.90;;;;;;5176108;27;20367;-55
2021/12/23 05:57:57;;;;;;;5.78;5.18;;;7.50;76.90;;;;;;5178020;27;20102;-56
2021/12/23 06:00:26;;;;;;;6.32;5.55;;;7.50;77.00;;;;;;5159164;27;20421;-56
2021/12/23 06:02:53;;;;;;;6.57;5.25;;;7.60;77.00;;;;;;5177639;27;20493;-55
2021/12/23 06:05:19;;;;;;;6.18;5.57;;;7.50;77.00;;;;;;5175937;27;20565;-56
2021/12/23 06:07:45;;;;;;;5.85;5.25;;;7.50;76.90;;;;;;5177423;27;20053;-56
2021/12/23 06:10:12;;;;;;;6.00;5.30;;;7.50;77.00;;;;;;5177290;27;20117;-55
2021/12/23 06:12:39;;;;;;;5.97;5.28;;;7.50;77.00;;;;;;5177497;27;20395;-53
2021/12/23 06:15:05;;;;;;;5.72;5.13;;;7.50;77.00;;;;;;5175810;27;20040;-55
2021/12/23 06:17:31;;;;;;;6.55;5.40;;;7.50;77.00;;;;;;5177359;27;20497;-56
2021/12/23 06:19:56;;;;;;;5.88;4.90;;;7.50;77.00;;;;;;5177499;27;20078;-56
2021/12/23 06:22:22;;;;;;;5.63;4.95;;;7.50;77.60;;;;;;5177437;27;20042;-55
2021/12/23 06:24:49;;;;;;;5.53;5.03;;;7.50;77.00;;;;;;5177196;27;20065;-55
2021/12/23 06:27:16;;;;;;;6.15;4.85;;;7.50;77.00;;;;;;5175123;27;20042;-56
2021/12/23 06:29:43;;;;;;;5.60;5.07;;;7.50;77.00;;;;;;5177294;27;20042;-56
2021/12/23 06:32:10;;;;;;;5.90;5.30;;;7.50;77.00;;;;;;5177079;27;20126;-56
2021/12/23 06:34:36;;;;;;;7.35;5.65;;;7.50;77.00;;;;;;5176933;27;20481;-55
2021/12/23 06:37:04;;;;;;;6.15;5.32;;;7.50;77.00;;;;;;5174849;27;20046;-53
2021/12/23 06:39:34;;;;;;;5.20;4.53;;;7.50;77.00;;;;;;5177102;27;20098;-56
2021/12/23 06:42:00;;;;;;;6.63;5.32;;;7.50;77.00;;;;;;5176711;27;20048;-56
2021/12/23 06:44:26;;;;;;;7.05;5.70;;;7.50;77.00;;;;;;5176715;27;20038;-56
2021/12/23 06:46:52;;;;;;;6.80;5.47;;;7.50;77.00;;;;;;5175178;27;20038;-56
2021/12/23 06:49:18;;;;;;;6.18;5.30;;;7.50;77.00;;;;;;5158265;27;20091;-56
2021/12/23 06:51:44;;;;;;;6.05;5.05;;;7.50;77.00;;;;;;5176910;27;20030;-56
2021/12/23 06:54:13;;;;;;;6.20;5.53;;;7.50;77.00;;;;;;5176703;27;20506;-56
2021/12/23 06:56:39;;;;;;;6.75;5.65;;;7.50;77.10;;;;;;5176852;27;20030;-53
2021/12/23 06:59:06;;;;;;;5.72;4.97;;;7.50;77.00;;;;;;5155595;27;20046;-55
2021/12/23 07:01:31;;;;;;;6.35;5.47;;;7.50;77.00;;;;;;5176268;27;20414;-55
2021/12/23 07:04:12;;;;;;;5.95;5.00;;;7.50;77.60;;;;;;5176759;27;20034;-55
2021/12/23 07:06:46;;;;;;;6.13;5.53;;;7.50;77.00;;;;;;5176702;27;20054;-52
2021/12/23 07:09:12;;;;;;;6.45;5.65;;;7.50;77.00;;;;;;5174375;27;20517;-55
2021/12/23 07:11:37;;;;;;;6.07;5.38;;;7.50;77.00;;;;;;5176622;27;20051;-56
2021/12/23 07:14:03;;;;;;;6.68;5.65;;;7.50;77.00;;;;;;5176496;27;20038;-56
2021/12/23 07:16:29;;;;;;;6.00;5.40;;;7.50;77.00;;;;;;5176126;27;20030;-56
2021/12/23 07:18:55;;;;;;;5.78;5.03;;;7.50;77.00;;;;;;5174697;27;20042;-54
2021/12/23 07:21:21;;;;;;;6.63;5.70;;;7.50;77.00;;;;;;5176407;27;20042;-52
2021/12/23 07:23:47;;;;;;;6.40;5.57;;;7.50;77.00;;;;;;5176376;27;20466;-55
2021/12/23 07:26:12;;;;;;;7.53;6.38;;;7.50;77.00;;;;;;5176190;27;20052;-54
2021/12/23 07:28:38;;;;;;;8.20;6.03;;;7.50;77.00;;;;;;5170910;27;20038;-51
2021/12/23 07:31:04;;;;;;;6.05;5.05;;;7.50;77.00;;;;;;5165485;27;20034;-56
2021/12/23 07:33:29;;;;;;;6.05;5.45;;;7.60;77.10;;;;;;5167129;27;20034;-54
2021/12/23 07:35:55;;;;;;;7.15;5.90;;;7.50;77.00;;;;;;5165992;27;20034;-57
2021/12/23 07:38:21;;;;;;;6.40;5.55;;;7.50;77.00;;;;;;5165433;27;20070;-55
2021/12/23 07:40:46;;;;;;;6.82;5.72;;;7.50;77.00;;;;;;5146541;27;20114;-57
2021/12/23 07:43:42;;;;;;;6.72;5.57;;;7.50;77.00;;;;;;5163214;27;20050;-56
2021/12/23 07:46:08;;;;;;;6.65;5.80;;;7.50;77.00;;;;;;5165477;27;20408;-56
2021/12/23 07:48:34;;;;;;;7.10;5.40;;;7.50;77.00;;;;;;5156640;27;20049;-55
2021/12/23 07:51:02;;;;;;;7.53;5.10;;;7.50;77.00;;;;;;5159356;27;20496;-55
2021/12/23 07:53:28;;;;;;;5.90;5.30;;;7.50;77.00;;;;;;5174891;27;20042;-54
2021/12/23 07:55:54;;;;;;;6.88;5.82;;;7.50;77.00;;;;;;5174844;27;20182;-56
2021/12/23 07:58:20;;;;;;;6.40;5.72;;;7.50;77.00;;;;;;5174700;27;20125;-55
2021/12/23 08:00:45;;;;;;;5.80;5.10;;;7.50;77.00;;;;;;5174863;27;20042;-57
2021/12/23 08:03:11;;;;;;;6.47;5.80;;;7.40;77.00;;;;;;5173090;27;20045;-56
2021/12/23 08:05:37;;;;;;;6.30;5.53;;;7.50;77.00;;;;;;5175519;27;20049;-56
2021/12/23 08:08:04;;;;;;;7.10;5.72;;;7.50;77.00;;;;;;5174930;27;20050;-55
2021/12/23 08:10:30;;;;;;;7.03;5.43;;;7.50;77.00;;;;;;5175132;27;20031;-55
2021/12/23 08:12:56;;;;;;;6.38;5.40;;;7.50;77.00;;;;;;5173671;27;20130;-56
2021/12/23 08:15:21;;;;;;;7.47;5.80;;;7.50;77.00;;;;;;5175402;27;20046;-56
2021/12/23 08:17:47;;;;;;;6.88;5.70;;;7.50;77.00;;;;;;5173173;27;20053;-56
2021/12/23 08:20:15;;;;;;;6.90;5.70;;;7.60;77.00;;;;;;5174907;27;20116;-56
2021/12/23 08:22:42;;;;;;;7.70;5.95;;;7.50;77.00;;;;;;5154074;27;20115;-56
2021/12/23 08:25:10;;;;;;;6.65;5.88;;;7.50;77.00;;;;;;5175067;27;20034;-57
2021/12/23 08:27:36;;;;;;;6.78;5.88;;;7.50;77.00;;;;;;5155820;27;20042;-57
2021/12/23 08:30:08;;;;;;;6.60;5.90;;;7.50;77.00;;;;;;5175272;27;20044;-58
2021/12/23 08:32:34;;;;;;;7.13;6.20;;;7.50;77.00;;;;;;5175077;27;20038;-57
2021/12/23 08:35:00;;;;;;;7.47;6.03;;;7.50;77.00;;;;;;5172710;27;20402;-55
2021/12/23 08:37:25;;;;;;;6.18;5.55;;;7.50;77.00;;;;;;5174813;27;20036;-57
2021/12/23 08:39:53;;;;;;;6.65;5.85;;;7.50;77.00;;;;;;5174815;27;20049;-56
2021/12/23 08:42:18;;;;;;;6.93;5.80;;;7.50;77.00;;;;;;5174757;27;20113;-56
2021/12/23 08:44:44;;;;;;;6.45;5.75;;;7.50;77.00;;;;;;5173106;27;20076;-57
2021/12/23 08:47:10;;;;;;;7.30;6.15;;;7.50;77.00;;;;;;5174482;27;20041;-58
2021/12/23 08:49:36;;;;;;;7.00;6.10;;;7.50;77.00;;;;;;5174443;27;20152;-57
2021/12/23 08:52:03;;;;;;;6.95;6.25;;;7.50;77.00;;;;;;5174383;27;20379;-57
2021/12/23 08:54:29;;;;;;;6.80;6.00;;;7.50;77.00;;;;;;5154022;27;20055;-56
2021/12/23 08:56:55;;;;;;;7.65;6.18;;;7.50;77.00;;;;;;5174599;27;20038;-57
2021/12/23 08:59:20;;;;;;;7.18;5.93;;;7.50;77.00;;;;;;5158150;27;20061;-57
2021/12/23 09:01:46;;;;;;;6.82;5.70;;;7.50;77.00;;;;;;5179152;27;20065;-57
2021/12/23 09:04:13;;;;;;;6.82;5.75;;;7.50;77.00;;;;;;5178987;27;20046;-57
2021/12/23 09:06:38;;;;;;;6.88;6.05;;;7.50;77.00;;;;;;5176332;27;20482;-52
2021/12/23 09:09:05;;;;;;;7.30;6.25;;;7.50;77.00;;;;;;5178567;27;20058;-56
2021/12/23 09:11:31;;;;;;;8.32;6.15;;;7.50;77.00;;;;;;5178767;27;20161;-52
2021/12/23 09:13:57;;;;;;;7.70;6.28;;;7.50;77.00;;;;;;5169139;27;20482;-55
2021/12/23 09:16:23;;;;;;;7.88;6.38;;;7.50;77.00;;;;;;5152696;27;20098;-56
2021/12/23 09:18:49;;;;;;;7.72;6.47;;;7.50;77.00;;;;;;5178961;27;20045;-54
2021/12/23 09:21:15;;;;;;;6.72;6.03;;;7.50;77.00;;;;;;5157793;27;20050;-53
2021/12/23 09:23:42;;;;;;;6.47;5.78;;;7.50;77.00;;;;;;5138156;27;20054;-53
2021/12/23 09:26:09;;;;;;;7.63;6.05;;;7.50;77.00;;;;;;5138185;27;20069;-55
2021/12/23 09:28:52;;;;;;;7.22;6.15;;;7.40;77.00;;;;;;5156142;27;20050;-51
2021/12/23 09:34:03;;;;;;;7.00;5.95;;;7.50;77.10;;;;;;5159386;27;20477;-52
2021/12/23 09:36:29;;;;;;;6.72;5.82;;;7.50;77.00;;;;;;5178358;27;20038;-55
2021/12/23 09:38:54;;;;;;;8.50;6.60;;;7.50;77.10;;;;;;5177829;27;20129;-55
2021/12/23 09:41:23;;;;;;;7.55;6.15;;;7.50;77.00;;;;;;5178373;27;20038;-53
2021/12/23 09:43:49;;;;;;;7.45;6.50;;;7.50;77.10;;;;;;5178437;27;20175;-55
2021/12/23 09:46:20;;;;;;;7.72;6.25;;;7.40;77.00;;;;;;5177836;27;20049;-54
2021/12/23 09:48:48;;;;;;;7.57;6.05;;;7.50;77.10;;;;;;5159109;27;20051;-53
2021/12/23 09:51:20;;;;;;;6.88;5.88;;;7.50;77.10;;;;;;5178159;27;20038;-50
2021/12/23 09:53:56;;;;;;;7.43;5.97;;;7.50;77.10;;;;;;5159122;27;20181;-51
2021/12/23 09:56:30;;;;;;;6.85;6.10;;;7.50;77.10;;;;;;5177713;27;20386;-56
2021/12/23 09:59:41;;;;;;;7.68;5.90;;;7.40;77.10;;;;;;5178111;27;20049;-57
2021/12/23 10:02:12;;;;;;;8.05;6.65;;;7.50;77.00;;;;;;5169982;27;20038;-52
2021/12/23 10:04:38;;;;;;;7.78;6.15;;;7.50;77.10;;;;;;5138388;27;20034;-56
2021/12/23 10:07:32;;;;;;;7.82;6.38;;;7.50;77.10;;;;;;5154639;27;20091;-58
2021/12/23 10:10:44;;;;;;;7.35;6.38;;;7.40;77.10;;;;;;5029361;28;20049;-52
2021/12/23 10:38:11;;;;;;;8.25;7.10;;;7.40;77.20;;;;;;5011255;28;20042;-58
2021/12/23 10:40:40;;;;;;;7.68;6.63;;;7.40;77.20;;;;;;5010868;28;20054;-56
2021/12/23 10:43:08;;;;;;;7.88;6.72;;;7.40;77.20;;;;;;5019069;28;20049;-58
2021/12/23 10:45:54;;;;;;;8.13;6.93;;;7.40;77.20;;;;;;5031683;28;20126;-53
2021/12/23 10:48:20;;;;;;;9.30;6.90;;;7.40;77.20;;;;;;5092297;28;20114;-56
2021/12/23 10:50:51;;;;;;;8.15;6.43;;;7.40;77.20;;;;;;5091600;28;20043;-55
2021/12/23 10:59:19;;;;;;;9.00;7.30;;;7.40;77.20;;;;;;5091006;28;20357;-56
2021/12/23 11:02:07;;;;;;;8.85;7.20;;;7.40;77.20;;;;;;5119098;27;20093;-52
2021/12/23 11:04:58;;;;;;;8.57;7.35;;;7.40;77.20;;;;;;5155619;27;20050;-55
2021/12/23 11:07:24;;;;;;;8.73;7.22;;;7.40;77.20;;;;;;5155300;27;20055;-56
2021/12/23 11:37:44;;;;;;;11.18;8.27;;;7.40;77.40;;;;;;5098796;28;20132;-48
2021/12/23 11:40:25;;;;;;;9.88;7.72;;;7.40;77.40;;;;;;5090614;28;20086;-54
2021/12/23 11:43:24;;;;;;;9.73;7.70;;;7.40;77.30;;;;;;5089457;28;20132;-56
2021/12/23 11:45:50;;;;;;;9.00;7.45;;;7.40;77.40;;;;;;5089379;28;20966;-55
2021/12/23 11:48:17;;;;;;;8.50;7.65;;;7.40;77.40;;;;;;5089683;28;20148;-55
2021/12/23 11:53:28;;;;;;;8.63;7.50;;;7.40;77.40;;;;;;5089155;28;20043;-55
2021/12/23 11:55:55;;;;;;;9.50;7.10;;;7.40;77.40;;;;;;5096124;27;20040;-56
2021/12/23 11:58:25;;;;;;;9.90;8.15;;;7.40;77.40;;;;;;5161407;27;20381;-56
2021/12/23 12:01:06;;;;;;;9.57;7.72;;;7.40;77.40;;;;;;5153363;27;20047;-53
2021/12/23 12:03:56;;;;;;;8.73;7.72;;;7.40;77.40;;;;;;5163203;27;20046;-54
2021/12/23 12:06:38;;;;;;;9.70;7.53;;;7.40;77.40;;;;;;5154396;27;20039;-56
2021/12/23 12:09:12;;;;;;;9.82;8.07;;;7.40;77.40;;;;;;5136371;27;20054;-57
2021/12/23 12:11:39;;;;;;;9.77;7.72;;;7.40;77.40;;;;;;5154394;27;20061;-58
2021/12/23 12:14:34;;;;;;;10.25;7.45;;;7.40;77.40;;;;;;5154223;27;20096;-54
2021/12/23 12:17:25;;;;;;;8.88;7.68;;;7.40;77.30;;;;;;5167593;27;20038;-55
2021/12/23 12:19:53;;;;;;;10.15;7.95;;;7.40;77.30;;;;;;5159521;27;20042;-56
2021/12/23 12:22:56;;;;;;;9.27;8.00;;;7.40;77.40;;;;;;5154866;27;20039;-52
2021/12/23 12:25:24;;;;;;;11.02;8.13;;;7.40;77.30;;;;;;5154485;27;20050;-54
2021/12/23 12:27:56;;;;;;;10.77;7.78;;;7.40;77.40;;;;;;5154535;27;20505;-54
2021/12/23 12:30:46;;;;;;;9.68;7.57;;;7.40;77.40;;;;;;5155541;27;20047;-55
2021/12/23 12:33:24;;;;;;;10.57;7.75;;;7.40;77.40;;;;;;5153634;27;20522;-57
2021/12/23 12:36:04;;;;;;;9.18;7.85;;;7.40;77.40;;;;;;5154462;27;20111;-55
2021/12/23 12:38:42;;;;;;;9.70;7.88;;;7.40;77.40;;;;;;5155425;27;20080;-58
2021/12/23 12:41:26;;;;;;;11.43;8.50;;;7.40;77.40;;;;;;5154128;27;20114;-57
2021/12/23 12:44:02;;;;;;;12.00;8.95;;;7.40;77.40;;;;;;5154461;27;20054;-57
2021/12/23 12:46:34;;;;;;;;;;;7.40;77.40;;;;;;5154489;27;20046;-57
2021/12/23 12:49:14;;;;;;;10.27;8.15;;;7.40;77.30;;;;;;5154699;27;20324;-57
2021/12/23 12:51:53;;;;;;;10.52;8.10;;;7.40;77.50;;;;;;5154352;27;20093;-54
2021/12/23 12:54:30;;;;;;;9.65;7.90;;;7.40;77.40;;;;;;5135824;27;20046;-57
2021/12/23 12:57:07;;;;;;;10.82;8.40;;;7.40;77.40;;;;;;5154022;27;20118;-51
2021/12/23 12:59:42;;;;;;;9.63;8.18;;;7.40;77.50;;;;;;5155192;27;20039;-55
2021/12/23 13:02:29;;;;;;;10.23;7.90;;;7.40;77.50;;;;;;5153928;27;20047;-54
2021/12/23 13:05:09;;;;;;;11.05;8.18;;;7.40;77.40;;;;;;5153831;27;20046;-55
2021/12/23 13:07:40;;;;;;;11.18;8.57;;;7.40;77.50;;;;;;5155089;27;20435;-56
2021/12/23 13:10:12;;;;;;;10.45;8.05;;;7.30;77.40;;;;;;5154237;27;20038;-56
2021/12/23 13:12:54;;;;;;;10.02;7.88;;;7.40;77.50;;;;;;5154116;27;20103;-57
2021/12/23 13:15:20;;;;;;;10.02;7.90;;;7.40;77.40;;;;;;5154107;27;20393;-56
2021/12/23 13:17:59;;;;;;;10.35;8.52;;;7.40;77.50;;;;;;5136419;27;20046;-56
2021/12/23 13:20:47;;;;;;;11.65;8.05;;;7.40;77.50;;;;;;5153785;27;20047;-56
2021/12/23 13:23:40;;;;;;;9.90;7.80;;;7.40;77.50;;;;;;5118307;27;20082;-54
2021/12/23 13:26:15;;;;;;;10.90;8.15;;;7.40;77.50;;;;;;5154378;27;20429;-56
2021/12/23 13:28:43;;;;;;;11.00;8.52;;;7.40;77.50;;;;;;5136206;27;20050;-55
2021/12/23 13:31:14;;;;;;;11.20;8.27;;;7.40;78.20;;;;;;5153891;27;20067;-55
2021/12/23 13:33:44;;;;;;;11.10;8.50;;;7.40;77.50;;;;;;5154944;27;20035;-55
2021/12/23 13:36:38;;;;;;;11.02;8.80;;;7.40;77.50;;;;;;5165643;27;20066;-50
2021/12/23 13:39:10;;;;;;;11.02;8.70;;;7.40;77.50;;;;;;5144171;27;20142;-54
2021/12/23 13:41:44;;;;;;;9.40;7.80;;;7.40;77.50;;;;;;5170841;27;20087;-53
2021/12/23 13:44:17;;;;;;;13.57;9.00;;;7.40;77.60;;;;;;5157845;27;20035;-55
2021/12/23 13:46:45;;;;;;;10.52;8.32;;;7.40;77.50;;;;;;5176278;27;20431;-56
2021/12/23 13:49:12;;;;;;;10.90;8.27;;;7.40;77.50;;;;;;5170591;27;20525;-52
2021/12/23 13:51:41;;;;;;;11.32;8.38;;;7.40;77.60;;;;;;5156960;27;20526;-55
2021/12/23 13:54:16;;;;;;;10.93;8.57;;;7.40;77.60;;;;;;5176603;27;20038;-55
2021/12/23 13:56:50;;;;;;;10.50;8.20;;;7.40;77.50;;;;;;5172758;27;20026;-55
2021/12/23 13:59:15;;;;;;;10.93;9.05;;;7.40;77.50;;;;;;5156593;27;20046;-57
2021/12/23 14:01:54;;;;;;;11.13;8.43;;;7.40;77.50;;;;;;5167217;27;20042;-56
2021/12/23 14:04:34;;;;;;;11.88;8.05;;;7.40;77.50;;;;;;5177397;27;20481;-57
2021/12/23 14:07:01;;;;;;;11.27;8.32;;;7.40;77.50;;;;;;5177905;27;20046;-55
2021/12/23 14:09:36;;;;;;;11.15;8.93;;;7.40;77.50;;;;;;5176770;27;20057;-57
2021/12/23 14:12:02;;;;;;;10.68;7.93;;;7.40;77.50;;;;;;5177495;27;20425;-52
2021/12/23 14:14:28;;;;;;;11.27;8.50;;;7.40;77.50;;;;;;5177490;27;20038;-52
2021/12/23 14:16:54;;;;;;;11.02;8.50;;;7.40;77.50;;;;;;5165637;27;20567;-57
2021/12/23 14:19:28;;;;;;;11.77;8.88;;;7.40;77.50;;;;;;5177188;27;20083;-53
2021/12/23 14:24:51;;;;;;;10.98;8.70;;;7.40;77.60;;;;;;5175374;27;20280;-57